createdAt,value
2022-11-23T00:00:16.314Z,12.90
2022-11-23T00:03:01.888Z,15.45
2022-11-23T00:05:47.490Z,16.67
2022-11-23T00:08:33.195Z,14.40
2022-11-23T00:11:20.497Z,14.15
2022-11-23T00:14:05.614Z,15.32
2022-11-23T00:16:51.061Z,13.13
2022-11-23T00:19:36.602Z,12.43
2022-11-23T00:22:22.088Z,14.20
2022-11-23T00:25:07.812Z,12.88
2022-11-23T00:27:53.406Z,12.23
2022-11-23T00:30:38.719Z,13.00
2022-11-23T00:33:24.363Z,14.30
2022-11-23T00:36:14.794Z,12.93
2022-11-23T00:39:00.531Z,12.48
2022-11-23T00:41:45.790Z,13.38
2022-11-23T00:44:31.400Z,16.95
2022-11-23T00:47:16.775Z,13.70
2022-11-23T00:50:03.138Z,16.08
2022-11-23T00:52:48.446Z,14.05
2022-11-23T00:55:33.821Z,14.68
2022-11-23T00:58:19.413Z,13.68
2022-11-23T01:01:10.643Z,17.30
2022-11-23T01:03:58.291Z,14.95
2022-11-23T01:06:47.498Z,13.30
2022-11-23T01:09:34.430Z,14.13
2022-11-23T01:12:20.073Z,14.15
2022-11-23T01:15:06.378Z,13.52
2022-11-23T01:17:52.126Z,13.60
2022-11-23T01:20:37.451Z,14.73
2022-11-23T01:23:23.070Z,14.88
2022-11-23T01:26:10.522Z,15.70
2022-11-23T01:28:55.866Z,18.23
2022-11-23T01:31:46.418Z,15.23
2022-11-23T01:34:35.384Z,15.40
2022-11-23T01:37:20.981Z,18.90
2022-11-23T01:40:07.146Z,16.15
2022-11-23T01:42:56.175Z,16.25
2022-11-23T01:45:45.391Z,17.58
2022-11-23T01:48:45.660Z,16.92
2022-11-23T01:51:41.088Z,15.95
2022-11-23T01:54:35.909Z,17.38
2022-11-23T01:57:31.659Z,17.35
2022-11-23T02:00:19.171Z,20.63
2022-11-23T02:03:06.360Z,22.40
2022-11-23T02:05:59.958Z,19.45
2022-11-23T02:08:46.383Z,20.02
2022-11-23T02:11:31.805Z,19.70
2022-11-23T02:14:22.043Z,19.15
2022-11-23T02:17:08.988Z,20.25
2022-11-23T02:20:13.315Z,19.33
2022-11-23T02:23:34.345Z,17.48
2022-11-23T02:26:24.276Z,18.60
2022-11-23T02:29:23.617Z,18.70
2022-11-23T02:32:09.556Z,19.05
2022-11-23T02:34:54.992Z,16.73
2022-11-23T02:37:42.877Z,17.75
2022-11-23T02:40:35.430Z,19.80
2022-11-23T02:43:20.879Z,16.95
2022-11-23T02:46:06.991Z,18.75
2022-11-23T02:48:52.151Z,18.17
2022-11-23T02:51:38.138Z,20.65
2022-11-23T02:54:23.701Z,18.55
2022-11-23T02:57:10.604Z,17.95
2022-11-23T02:59:57.205Z,18.05
2022-11-23T03:02:43.100Z,14.52
2022-11-23T03:05:30.924Z,16.67
2022-11-23T03:08:16.520Z,16.65
2022-11-23T03:11:02.299Z,14.98
2022-11-23T03:13:49.161Z,12.23
2022-11-23T03:16:38.744Z,13.68
2022-11-23T03:19:25.510Z,17.85
2022-11-23T03:22:11.829Z,15.07
2022-11-23T03:24:57.497Z,15.63
2022-11-23T03:27:43.135Z,16.02
2022-11-23T03:30:28.429Z,15.02
2022-11-23T03:33:13.884Z,13.02
2022-11-23T03:35:59.303Z,11.50
2022-11-23T03:38:48.443Z,13.57
2022-11-23T03:41:52.793Z,13.00
2022-11-23T03:44:40.556Z,14.00
2022-11-23T03:47:25.844Z,15.60
2022-11-23T03:50:12.541Z,14.25
2022-11-23T03:52:57.814Z,13.10
2022-11-23T03:55:46.685Z,14.80
2022-11-23T03:58:32.871Z,13.55
2022-11-23T04:01:19.377Z,13.15
2022-11-23T04:04:09.826Z,13.25
2022-11-23T04:07:16.020Z,11.98
2022-11-23T04:10:08.526Z,14.38
2022-11-23T04:13:13.547Z,13.75
2022-11-23T04:15:59.402Z,15.18
2022-11-23T04:18:44.680Z,13.00
2022-11-23T04:21:30.575Z,14.80
2022-11-23T04:24:16.844Z,14.88
2022-11-23T04:27:02.709Z,15.85
2022-11-23T04:29:48.035Z,18.08
2022-11-23T04:32:33.476Z,19.52
2022-11-23T04:35:19.608Z,18.38
2022-11-23T04:38:07.903Z,20.40
2022-11-23T04:40:54.199Z,19.95
2022-11-23T04:43:39.649Z,18.15
2022-11-23T04:46:25.652Z,19.17
2022-11-23T04:49:10.968Z,19.42
2022-11-23T04:51:56.932Z,18.30
2022-11-23T04:54:48.903Z,16.73
2022-11-23T04:57:34.502Z,16.88
2022-11-23T05:00:20.112Z,16.88
2022-11-23T05:03:06.530Z,15.25
2022-11-23T05:05:53.988Z,15.70
2022-11-23T05:08:39.693Z,15.70
2022-11-23T05:11:40.681Z,14.60
2022-11-23T05:14:27.471Z,13.82
2022-11-23T05:17:13.048Z,13.77
2022-11-23T05:20:00.157Z,13.95
2022-11-23T05:22:47.927Z,14.65
2022-11-23T05:25:36.760Z,14.70
2022-11-23T05:28:40.344Z,14.10
2022-11-23T05:31:26.671Z,16.25
2022-11-23T05:34:12.200Z,13.52
2022-11-23T05:37:04.385Z,14.95
2022-11-23T05:39:50.096Z,13.15
2022-11-23T05:42:36.480Z,14.88
2022-11-23T05:45:29.594Z,15.93
2022-11-23T05:48:16.543Z,13.75
2022-11-23T05:51:09.924Z,15.13
2022-11-23T05:54:01.058Z,13.40
2022-11-23T05:57:06.947Z,13.50
2022-11-23T05:59:57.847Z,13.40
2022-11-23T06:03:01.452Z,13.93
2022-11-23T06:05:49.437Z,14.43
2022-11-23T06:08:39.244Z,13.90
2022-11-23T06:11:25.266Z,13.82
2022-11-23T06:14:14.372Z,14.38
2022-11-23T06:17:02.356Z,13.40
2022-11-23T06:22:41.355Z,15.60
2022-11-23T06:25:27.485Z,11.98
2022-11-23T06:28:24.599Z,12.60
2022-11-23T06:31:12.304Z,12.50
2022-11-23T06:33:57.765Z,12.73
2022-11-23T06:36:43.350Z,14.85
2022-11-23T06:39:29.055Z,11.93
2022-11-23T06:42:37.640Z,11.07
2022-11-23T06:45:21.805Z,13.40
2022-11-23T06:48:10.948Z,10.65
2022-11-23T06:51:01.870Z,12.38
2022-11-23T06:53:49.219Z,11.48
2022-11-23T06:56:36.148Z,15.57
2022-11-23T06:59:21.584Z,13.60
2022-11-23T07:02:07.068Z,12.68
2022-11-23T07:04:54.954Z,14.57
2022-11-23T07:07:40.472Z,12.25
2022-11-23T07:10:32.902Z,12.20
2022-11-23T07:13:19.637Z,11.15
2022-11-23T07:16:05.898Z,9.90
2022-11-23T07:18:51.728Z,10.80
2022-11-23T07:21:37.133Z,11.15
2022-11-23T07:24:22.628Z,12.75
2022-11-23T07:27:08.088Z,11.75
2022-11-23T07:29:53.923Z,9.80
2022-11-23T07:32:39.255Z,10.40
2022-11-23T07:35:24.839Z,10.40
2022-11-23T07:38:10.731Z,12.07
2022-11-23T07:40:56.587Z,11.18
2022-11-23T07:43:57.839Z,13.55
2022-11-23T07:46:43.339Z,12.05
2022-11-23T07:49:28.465Z,10.35
2022-11-23T07:52:13.708Z,10.07
2022-11-23T07:55:00.778Z,10.85
2022-11-23T07:57:45.990Z,8.98
2022-11-23T08:00:31.379Z,9.93
2022-11-23T08:03:32.357Z,10.52
2022-11-23T08:06:17.728Z,11.55
2022-11-23T08:09:03.161Z,8.25
2022-11-23T08:11:48.640Z,11.88
2022-11-23T08:14:34.367Z,9.30
2022-11-23T08:17:19.963Z,9.27
2022-11-23T08:20:05.771Z,8.90
2022-11-23T08:22:51.114Z,8.07
2022-11-23T08:25:36.453Z,7.75
2022-11-23T08:28:22.085Z,8.88
2022-11-23T08:31:09.045Z,8.98
2022-11-23T08:33:57.622Z,6.93
2022-11-23T08:36:45.790Z,12.80
2022-11-23T08:39:31.267Z,11.23
2022-11-23T08:42:16.575Z,11.73
2022-11-23T08:45:04.176Z,8.18
2022-11-23T08:47:50.909Z,10.32
2022-11-23T08:50:37.041Z,9.57
2022-11-23T08:53:22.419Z,10.82
2022-11-23T08:56:08.251Z,9.77
2022-11-23T08:58:53.651Z,9.30
2022-11-23T09:01:38.882Z,8.73
2022-11-23T09:04:24.481Z,7.95
2022-11-23T09:07:09.652Z,9.18
2022-11-23T09:09:55.051Z,10.05
2022-11-23T09:12:40.410Z,7.40
2022-11-23T09:15:25.918Z,10.55
2022-11-23T09:18:11.576Z,6.30
2022-11-23T09:20:57.982Z,10.52
2022-11-23T09:23:43.384Z,7.07
2022-11-23T09:26:30.464Z,8.65
2022-11-23T09:29:15.932Z,9.65
2022-11-23T09:32:02.830Z,8.25
2022-11-23T09:34:48.196Z,9.95
2022-11-23T09:37:33.679Z,8.65
2022-11-23T09:40:19.017Z,7.85
2022-11-23T09:43:17.109Z,9.52
2022-11-23T09:46:16.994Z,10.60
2022-11-23T09:49:21.714Z,9.27
2022-11-23T09:52:18.010Z,10.57
2022-11-23T09:55:07.410Z,12.88
2022-11-23T09:57:59.713Z,8.45
2022-11-23T10:00:59.152Z,12.98
2022-11-23T10:03:48.765Z,10.07
2022-11-23T10:06:40.310Z,16.17
2022-11-23T10:09:53.921Z,9.85
2022-11-23T10:12:45.168Z,12.63
2022-11-23T10:15:54.269Z,11.30
2022-11-23T10:19:09.223Z,9.43
2022-11-23T10:22:08.997Z,11.10
2022-11-23T10:24:54.729Z,9.73
2022-11-23T10:27:40.217Z,10.30
2022-11-23T10:30:25.630Z,11.25
2022-11-23T10:33:31.471Z,12.85
2022-11-23T10:36:17.127Z,12.80
2022-11-23T10:39:11.962Z,9.55
2022-11-23T10:42:03.405Z,11.57
2022-11-23T10:44:51.418Z,12.20
2022-11-23T10:47:51.616Z,9.98
2022-11-23T10:50:40.652Z,9.68
2022-11-23T10:53:30.854Z,14.30
2022-11-23T10:56:16.414Z,11.23
2022-11-23T10:59:01.903Z,13.23
2022-11-23T11:02:11.105Z,8.50
2022-11-23T11:05:46.438Z,9.35
2022-11-23T11:08:34.342Z,11.77
2022-11-23T11:11:25.551Z,11.65
2022-11-23T11:14:24.623Z,11.32
2022-11-23T11:17:26.484Z,11.07
2022-11-23T11:20:32.335Z,10.55
2022-11-23T11:23:21.563Z,9.07
2022-11-23T11:26:15.115Z,8.63
2022-11-23T11:29:03.139Z,7.55
2022-11-23T11:32:06.012Z,11.18
2022-11-23T11:35:20.769Z,11.90
2022-11-23T11:38:25.060Z,11.57
2022-11-23T11:41:14.172Z,9.07
2022-11-23T11:44:08.892Z,7.18
2022-11-23T11:47:00.120Z,6.88
2022-11-23T11:49:49.066Z,8.15
2022-11-23T11:52:39.216Z,11.50
2022-11-23T11:55:29.949Z,8.60
2022-11-23T11:58:17.869Z,7.72
2022-11-23T12:01:38.472Z,14.73
2022-11-23T12:04:43.167Z,8.68
2022-11-23T12:07:50.527Z,12.43
2022-11-23T12:10:54.664Z,9.25
2022-11-23T12:13:43.867Z,9.30
2022-11-23T12:17:31.344Z,8.57
2022-11-23T12:20:24.366Z,8.25
2022-11-23T12:23:30.234Z,8.90
2022-11-23T12:26:29.991Z,7.60
2022-11-23T12:30:09.556Z,6.97
2022-11-23T12:33:33.877Z,6.55
2022-11-23T12:36:39.615Z,7.30
2022-11-23T12:39:24.769Z,9.60
2022-11-23T12:42:44.671Z,7.53
2022-11-23T12:45:46.930Z,7.05
2022-11-23T12:48:52.906Z,9.25
2022-11-23T12:52:23.555Z,8.68
2022-11-23T12:55:29.151Z,6.90
2022-11-23T12:58:26.038Z,8.75
2022-11-23T13:01:47.367Z,5.55
2022-11-23T13:04:55.771Z,7.25
2022-11-23T13:07:56.668Z,9.13
2022-11-23T13:10:53.824Z,8.80
2022-11-23T13:14:04.001Z,8.55
2022-11-23T13:17:25.247Z,7.22
2022-11-23T13:20:23.707Z,7.22
2022-11-23T13:23:09.156Z,7.63
2022-11-23T13:26:15.675Z,8.75
2022-11-23T13:29:46.101Z,9.55
2022-11-23T13:32:52.655Z,7.40
2022-11-23T13:35:44.275Z,7.93
2022-11-23T13:38:37.351Z,6.43
2022-11-23T13:41:34.975Z,9.98
2022-11-23T13:44:27.177Z,6.38
2022-11-23T13:47:16.200Z,6.97
2022-11-23T13:50:18.949Z,6.55
2022-11-23T13:53:22.251Z,9.20
2022-11-23T13:56:24.468Z,6.55
2022-11-23T13:59:25.227Z,8.20
2022-11-23T14:02:10.677Z,5.78
2022-11-23T14:05:36.175Z,6.38
2022-11-23T14:08:22.587Z,6.85
2022-11-23T14:11:14.314Z,7.10
2022-11-23T14:14:03.167Z,6.00
2022-11-23T14:17:13.938Z,10.32
2022-11-23T14:20:10.883Z,8.05
2022-11-23T14:23:26.959Z,7.75
2022-11-23T14:26:21.654Z,8.25
2022-11-23T14:29:27.908Z,6.47
2022-11-23T14:32:40.875Z,5.00
2022-11-23T14:35:42.072Z,6.60
2022-11-23T14:38:45.901Z,5.30
2022-11-23T14:41:36.207Z,5.50
2022-11-23T14:44:33.059Z,4.40
2022-11-23T14:47:31.567Z,7.88
2022-11-23T14:50:21.575Z,6.03
2022-11-23T14:53:11.080Z,6.43
2022-11-23T14:55:58.208Z,7.38
2022-11-23T14:58:44.789Z,4.97
2022-11-23T15:01:31.266Z,5.55
2022-11-23T15:04:34.543Z,6.25
2022-11-23T15:07:25.180Z,5.63
2022-11-23T15:10:19.383Z,4.25
2022-11-23T15:13:26.615Z,5.45
2022-11-23T15:16:14.148Z,7.82
2022-11-23T15:18:59.889Z,5.15
2022-11-23T15:21:45.821Z,4.63
2022-11-23T15:24:31.623Z,6.72
2022-11-23T15:27:28.283Z,4.22
2022-11-23T15:30:16.389Z,4.25
2022-11-23T15:33:06.075Z,5.90
2022-11-23T15:35:53.566Z,6.47
2022-11-23T15:38:39.386Z,4.47
2022-11-23T15:41:26.849Z,6.93
2022-11-23T15:44:27.037Z,5.88
2022-11-23T15:47:23.099Z,8.00
2022-11-23T15:50:09.682Z,4.78
2022-11-23T15:52:55.116Z,5.53
2022-11-23T15:55:41.388Z,4.60
2022-11-23T15:58:27.378Z,4.85
2022-11-23T16:01:14.112Z,4.75
2022-11-23T16:04:03.717Z,4.85
2022-11-23T16:06:49.456Z,3.63
2022-11-23T16:09:52.978Z,5.53
2022-11-23T16:12:56.998Z,5.13
2022-11-23T16:15:46.247Z,4.35
2022-11-23T16:18:34.231Z,8.25
2022-11-23T16:21:20.391Z,4.65
2022-11-23T16:24:05.833Z,5.68
2022-11-23T16:26:51.584Z,4.75
2022-11-23T16:29:37.589Z,6.15
2022-11-23T16:32:32.456Z,7.57
2022-11-23T16:35:20.342Z,5.82
2022-11-23T16:38:06.260Z,6.63
2022-11-23T16:40:51.995Z,5.10
2022-11-23T16:43:37.192Z,4.57
2022-11-23T16:46:22.796Z,7.00
2022-11-23T16:49:17.263Z,7.18
2022-11-23T16:52:02.883Z,7.05
2022-11-23T16:54:49.295Z,6.93
2022-11-23T16:57:34.883Z,4.90
2022-11-23T17:00:22.407Z,4.97
2022-11-23T17:03:14.253Z,6.35
2022-11-23T17:05:59.384Z,5.32
2022-11-23T17:08:46.033Z,5.60
2022-11-23T17:11:31.098Z,7.38
2022-11-23T17:14:19.163Z,6.10
2022-11-23T17:17:05.630Z,7.65
2022-11-23T17:19:51.787Z,5.10
2022-11-23T17:22:37.232Z,6.32
2022-11-23T17:25:22.602Z,7.32
2022-11-23T17:28:15.850Z,7.38
2022-11-23T17:31:01.893Z,6.97
2022-11-23T17:33:47.406Z,8.48
2022-11-23T17:36:32.950Z,6.00
2022-11-23T17:39:24.453Z,7.68
2022-11-23T17:42:12.038Z,7.47
2022-11-23T17:44:57.549Z,6.38
2022-11-23T17:47:44.514Z,7.65
2022-11-23T17:50:29.554Z,7.03
2022-11-23T17:53:15.015Z,7.07
2022-11-23T17:56:00.550Z,6.95
2022-11-23T17:58:46.682Z,9.65
2022-11-23T18:01:31.926Z,7.40
2022-11-23T18:04:17.397Z,6.35
2022-11-23T18:07:03.386Z,7.78
2022-11-23T18:09:50.420Z,7.68
2022-11-23T18:12:36.911Z,8.10
2022-11-23T18:15:22.259Z,9.50
2022-11-23T18:18:07.550Z,7.85
2022-11-23T18:20:53.042Z,7.93
2022-11-23T18:23:38.293Z,6.85
2022-11-23T18:26:27.055Z,7.40
2022-11-23T18:29:16.863Z,7.70
2022-11-23T18:32:03.656Z,9.27
2022-11-23T18:34:49.214Z,8.48
2022-11-23T18:37:34.724Z,7.47
2022-11-23T18:40:20.702Z,8.20
2022-11-23T18:43:06.045Z,6.97
2022-11-23T18:45:51.453Z,7.47
2022-11-23T18:48:37.811Z,8.30
2022-11-23T18:51:23.443Z,9.45
2022-11-23T18:54:08.922Z,9.90
2022-11-23T18:56:54.480Z,8.07
2022-11-23T18:59:57.629Z,8.18
2022-11-23T19:02:43.850Z,8.38
2022-11-23T19:05:35.086Z,8.15
2022-11-23T19:08:20.220Z,9.23
2022-11-23T19:11:16.030Z,9.40
2022-11-23T19:14:01.528Z,10.05
2022-11-23T19:16:47.356Z,8.45
2022-11-23T19:19:32.818Z,8.77
2022-11-23T19:22:18.568Z,7.43
2022-11-23T19:25:04.534Z,7.88
2022-11-23T19:27:51.282Z,9.15
2022-11-23T19:30:36.754Z,9.23
2022-11-23T19:33:22.314Z,8.82
2022-11-23T19:36:10.070Z,10.50
2022-11-23T19:38:56.375Z,8.10
2022-11-23T19:41:41.640Z,13.15
2022-11-23T19:44:27.179Z,10.88
2022-11-23T19:47:17.544Z,9.32
2022-11-23T19:50:05.921Z,9.07
2022-11-23T19:53:11.104Z,9.77
2022-11-23T19:56:14.625Z,11.70
2022-11-23T19:59:01.257Z,8.20
2022-11-23T20:01:46.977Z,10.90
2022-11-23T20:04:32.335Z,10.43
2022-11-23T20:07:19.301Z,10.95
2022-11-23T20:10:05.154Z,10.65
2022-11-23T20:12:50.622Z,10.05
2022-11-23T20:15:35.989Z,9.48
2022-11-23T20:18:24.459Z,9.48
2022-11-23T20:21:18.838Z,8.90
2022-11-23T20:24:11.593Z,8.68
2022-11-23T20:26:57.092Z,10.32
2022-11-23T20:29:42.372Z,12.23
2022-11-23T20:32:28.029Z,12.48
2022-11-23T20:35:13.546Z,10.73
2022-11-23T20:37:59.147Z,11.07
2022-11-23T20:40:44.669Z,10.60
2022-11-23T20:43:29.667Z,10.27
2022-11-23T20:46:31.766Z,10.57
2022-11-23T20:49:21.061Z,11.45
2022-11-23T20:52:06.590Z,12.65
2022-11-23T20:54:52.219Z,9.95
2022-11-23T20:57:37.496Z,8.05
2022-11-23T21:00:23.022Z,10.15
2022-11-23T21:03:09.348Z,8.18
2022-11-23T21:05:54.640Z,9.23
2022-11-23T21:08:41.759Z,8.98
2022-11-23T21:11:47.741Z,11.45
2022-11-23T21:14:34.073Z,10.13
2022-11-23T21:17:20.190Z,12.70
2022-11-23T21:20:06.049Z,10.68
2022-11-23T21:22:52.348Z,10.77
2022-11-23T21:25:37.828Z,10.95
2022-11-23T21:28:23.191Z,9.50
2022-11-23T21:31:09.831Z,12.02
2022-11-23T21:33:55.682Z,9.85
2022-11-23T21:36:41.024Z,10.65
2022-11-23T21:39:26.697Z,12.80
2022-11-23T21:42:12.111Z,7.72
2022-11-23T21:44:57.393Z,11.38
2022-11-23T21:47:43.144Z,10.32
2022-11-23T21:50:28.332Z,13.00
2022-11-23T21:53:13.768Z,11.10
2022-11-23T21:56:11.526Z,12.68
2022-11-23T21:58:57.156Z,12.85
2022-11-23T22:01:43.107Z,15.07
2022-11-23T22:04:28.632Z,12.90
2022-11-23T22:07:14.068Z,14.35
2022-11-23T22:09:59.458Z,12.10
2022-11-23T22:12:44.950Z,11.88
2022-11-23T22:15:31.562Z,12.10
2022-11-23T22:18:16.619Z,12.90
2022-11-23T22:21:06.275Z,12.18
2022-11-23T22:23:51.699Z,16.10
2022-11-23T22:26:37.042Z,14.75
2022-11-23T22:29:22.723Z,13.15
2022-11-23T22:32:08.208Z,12.15
2022-11-23T22:34:53.699Z,11.50
2022-11-23T22:37:39.173Z,10.38
2022-11-23T22:40:24.767Z,10.90
2022-11-23T22:43:10.379Z,11.05
2022-11-23T22:46:05.408Z,11.27
2022-11-23T22:48:52.523Z,10.13
2022-11-23T22:51:38.024Z,12.50
2022-11-23T22:54:23.630Z,12.20
2022-11-23T22:57:09.166Z,10.65
2022-11-23T22:59:54.356Z,12.00
2022-11-23T23:02:39.963Z,14.07
2022-11-23T23:05:25.264Z,10.50
2022-11-23T23:08:11.019Z,11.52
2022-11-23T23:10:56.415Z,10.73
2022-11-23T23:13:41.789Z,10.45
2022-11-23T23:16:27.352Z,9.52
2022-11-23T23:19:12.881Z,16.35
2022-11-23T23:21:58.611Z,10.60
2022-11-23T23:24:45.663Z,9.20
2022-11-23T23:27:31.160Z,15.10
2022-11-23T23:30:18.149Z,14.65
2022-11-23T23:33:03.325Z,12.88
2022-11-23T23:35:48.864Z,12.52
2022-11-23T23:38:34.858Z,10.65
2022-11-23T23:41:20.421Z,13.48
2022-11-23T23:44:05.972Z,14.65
2022-11-23T23:46:51.420Z,11.02
2022-11-23T23:49:36.995Z,8.63
2022-11-23T23:52:22.532Z,11.75
2022-11-23T23:55:09.597Z,11.10
2022-11-23T23:57:54.973Z,11.65
